createdAt,value
2019-05-10T00:00:59.239Z,998.15
2019-05-10T00:01:59.257Z,998.14
2019-05-10T00:02:59.224Z,998.14
2019-05-10T00:03:59.278Z,998.09
2019-05-10T00:04:59.215Z,998.08
2019-05-10T00:05:59.232Z,998.14
2019-05-10T00:06:59.198Z,998.15
2019-05-10T00:07:59.154Z,998.16
2019-05-10T00:08:59.161Z,998.16
2019-05-10T00:09:59.144Z,998.19
2019-05-10T00:10:59.174Z,998.24
2019-05-10T00:11:59.135Z,998.23
2019-05-10T00:12:59.116Z,998.18
2019-05-10T00:13:59.084Z,998.22
2019-05-10T00:14:59.109Z,998.23
2019-05-10T00:15:59.072Z,998.26
2019-05-10T00:16:59.089Z,998.22
2019-05-10T00:17:59.047Z,998.26
2019-05-10T00:18:59.032Z,998.25
2019-05-10T00:19:59.021Z,998.23
2019-05-10T00:20:59.039Z,998.32
2019-05-10T00:21:59.055Z,998.27
2019-05-10T00:22:59.005Z,998.23
2019-05-10T00:23:58.982Z,998.27
2019-05-10T00:25:04.770Z,998.32
2019-05-10T00:25:59.958Z,998.29
2019-05-10T00:26:58.988Z,998.38
2019-05-10T00:27:58.971Z,998.31
2019-05-10T00:28:58.934Z,998.31
2019-05-10T00:29:58.930Z,998.33
2019-05-10T00:30:58.912Z,998.29
2019-05-10T00:31:58.898Z,998.25
2019-05-10T00:32:58.906Z,998.30
2019-05-10T00:33:58.904Z,998.30
2019-05-10T00:34:58.861Z,998.29
2019-05-10T00:35:58.865Z,998.37
2019-05-10T00:36:58.866Z,998.33
2019-05-10T00:37:58.861Z,998.33
2019-05-10T00:38:58.826Z,998.33
2019-05-10T00:39:58.814Z,998.38
2019-05-10T00:40:58.801Z,998.39
2019-05-10T00:41:58.846Z,998.29
2019-05-10T00:42:58.813Z,998.35
2019-05-10T00:43:58.775Z,998.40
2019-05-10T00:44:58.761Z,998.33
2019-05-10T00:45:58.752Z,998.39
2019-05-10T00:46:58.773Z,998.38
2019-05-10T00:47:58.754Z,998.33
2019-05-10T00:48:58.708Z,998.38
2019-05-10T00:49:58.738Z,998.39
2019-05-10T00:50:58.757Z,998.42
2019-05-10T00:51:58.684Z,998.36
2019-05-10T00:52:58.671Z,998.39
2019-05-10T00:53:58.680Z,998.30
2019-05-10T00:54:58.650Z,998.34
2019-05-10T00:55:58.696Z,998.37
2019-05-10T00:56:58.623Z,998.42
2019-05-10T00:57:58.618Z,998.37
2019-05-10T00:58:58.621Z,998.34
2019-05-10T00:59:58.586Z,998.33
2019-05-10T01:00:58.583Z,998.32
2019-05-10T01:01:58.582Z,998.28
2019-05-10T01:02:58.555Z,998.34
2019-05-10T01:03:58.566Z,998.35
2019-05-10T01:04:58.545Z,998.31
2019-05-10T01:05:58.534Z,998.32
2019-05-10T01:06:58.574Z,998.24
2019-05-10T01:07:58.507Z,998.34
2019-05-10T01:08:58.516Z,998.29
2019-05-10T01:09:58.477Z,998.34
2019-05-10T01:10:58.474Z,998.41
2019-05-10T01:11:58.456Z,998.38
2019-05-10T01:12:58.482Z,998.41
2019-05-10T01:13:58.471Z,998.35
2019-05-10T01:14:58.447Z,998.42
2019-05-10T01:15:58.417Z,998.43
2019-05-10T01:16:58.396Z,998.41
2019-05-10T01:17:58.392Z,998.39
2019-05-10T01:18:58.434Z,998.50
2019-05-10T01:19:58.387Z,998.46
2019-05-10T01:20:58.359Z,998.49
2019-05-10T01:21:58.351Z,998.48
2019-05-10T01:22:58.336Z,998.53
2019-05-10T01:23:58.368Z,998.56
2019-05-10T01:24:58.337Z,998.55
2019-05-10T01:25:58.302Z,998.58
2019-05-10T01:26:58.291Z,998.58
2019-05-10T01:27:58.285Z,998.56
2019-05-10T01:28:58.267Z,998.59
2019-05-10T01:29:58.276Z,998.58
2019-05-10T01:30:58.253Z,998.61
2019-05-10T01:31:58.244Z,998.59
2019-05-10T01:32:58.283Z,998.56
2019-05-10T01:33:58.227Z,998.58
2019-05-10T01:34:58.247Z,998.58
2019-05-10T01:35:58.209Z,998.65
2019-05-10T01:36:58.180Z,998.62
2019-05-10T01:37:58.179Z,998.57
2019-05-10T01:38:58.196Z,998.58
2019-05-10T01:39:58.184Z,998.62
2019-05-10T01:40:58.145Z,998.61
2019-05-10T01:41:58.137Z,998.59
2019-05-10T01:42:58.114Z,998.60
2019-05-10T01:43:58.117Z,998.56
2019-05-10T01:44:58.125Z,998.58
2019-05-10T01:45:58.090Z,998.58
2019-05-10T01:46:58.128Z,998.66
2019-05-10T01:47:58.092Z,998.60
2019-05-10T01:48:58.053Z,998.61
2019-05-10T01:49:58.063Z,998.59
2019-05-10T01:50:58.031Z,998.63
2019-05-10T01:51:58.028Z,998.65
2019-05-10T01:52:58.162Z,998.62
2019-05-10T01:53:58.017Z,998.67
2019-05-10T01:54:58.025Z,998.62
2019-05-10T01:55:57.983Z,998.60
2019-05-10T01:56:57.973Z,998.62
2019-05-10T01:57:58.021Z,998.65
2019-05-10T01:58:57.952Z,998.63
2019-05-10T01:59:57.955Z,998.62
2019-05-10T02:00:57.935Z,998.65
2019-05-10T02:01:57.921Z,998.63
2019-05-10T02:02:57.933Z,998.68
2019-05-10T02:03:57.894Z,998.60
2019-05-10T02:04:57.897Z,998.66
2019-05-10T02:05:57.903Z,998.70
2019-05-10T02:06:57.867Z,998.61
2019-05-10T02:07:57.851Z,998.67
2019-05-10T02:08:57.868Z,998.66
2019-05-10T02:09:57.861Z,998.77
2019-05-10T02:10:57.817Z,998.69
2019-05-10T02:11:57.805Z,998.76
2019-05-10T02:12:57.803Z,998.76
2019-05-10T02:13:57.789Z,998.76
2019-05-10T02:14:57.798Z,998.77
2019-05-10T02:15:57.758Z,998.76
2019-05-10T02:16:57.767Z,998.74
2019-05-10T02:17:57.747Z,998.80
2019-05-10T02:18:57.741Z,998.75
2019-05-10T02:19:57.768Z,998.81
2019-05-10T02:20:57.711Z,998.79
2019-05-10T02:21:57.694Z,998.80
2019-05-10T02:22:57.724Z,998.78
2019-05-10T02:23:57.714Z,998.82
2019-05-10T02:24:57.731Z,998.86
2019-05-10T02:26:08.884Z,998.90
2019-05-10T02:26:58.765Z,998.85
2019-05-10T02:27:57.630Z,998.86
2019-05-10T02:28:57.635Z,998.84
2019-05-10T02:29:57.634Z,998.85
2019-05-10T02:30:57.611Z,998.85
2019-05-10T02:31:57.591Z,998.83
2019-05-10T02:32:57.608Z,998.81
2019-05-10T02:33:57.571Z,998.81
2019-05-10T02:34:57.589Z,998.78
2019-05-10T02:35:57.573Z,998.83
2019-05-10T02:36:57.532Z,998.85
2019-05-10T02:37:57.521Z,998.80
2019-05-10T02:38:57.526Z,998.80
2019-05-10T02:39:57.591Z,998.82
2019-05-10T02:40:57.515Z,998.83
2019-05-10T02:41:57.487Z,998.88
2019-05-10T02:42:57.476Z,998.83
2019-05-10T02:43:57.492Z,998.87
2019-05-10T02:44:57.446Z,998.84
2019-05-10T02:45:57.504Z,998.86
2019-05-10T02:46:57.449Z,998.83
2019-05-10T02:47:57.463Z,998.87
2019-05-10T02:48:57.397Z,998.96
2019-05-10T02:49:59.199Z,998.96
2019-05-10T02:50:57.439Z,998.99
2019-05-10T02:51:57.368Z,998.98
2019-05-10T02:52:57.368Z,998.95
2019-05-10T02:53:57.360Z,998.99
2019-05-10T02:54:57.332Z,998.96
2019-05-10T02:55:57.407Z,998.98
2019-05-10T02:56:57.325Z,998.93
2019-05-10T02:57:57.322Z,999.03
2019-05-10T02:58:57.340Z,999.03
2019-05-10T02:59:57.291Z,999.04
2019-05-10T03:00:57.314Z,998.99
2019-05-10T03:01:57.276Z,999.02
2019-05-10T03:02:57.250Z,999.11
2019-05-10T03:03:57.232Z,999.01
2019-05-10T03:04:57.282Z,999.07
2019-05-10T03:05:57.240Z,999.11
2019-05-10T03:06:57.223Z,999.08
2019-05-10T03:07:57.206Z,999.03
2019-05-10T03:08:57.212Z,999.06
2019-05-10T03:09:57.218Z,999.11
2019-05-10T03:10:57.216Z,999.07
2019-05-10T03:11:57.191Z,999.10
2019-05-10T03:12:57.140Z,999.12
2019-05-10T03:13:57.135Z,999.09
2019-05-10T03:14:57.128Z,999.09
2019-05-10T03:15:57.138Z,999.14
2019-05-10T03:16:57.106Z,999.11
2019-05-10T03:17:57.089Z,999.13
2019-05-10T03:18:57.114Z,999.22
2019-05-10T03:19:57.114Z,999.14
2019-05-10T03:20:57.086Z,999.17
2019-05-10T03:21:57.061Z,999.18
2019-05-10T03:22:57.051Z,999.21
2019-05-10T03:23:57.018Z,999.26
2019-05-10T03:24:57.022Z,999.25
2019-05-10T03:25:57.032Z,999.24
2019-05-10T03:26:56.993Z,999.29
2019-05-10T03:27:56.987Z,999.27
2019-05-10T03:28:56.982Z,999.22
2019-05-10T03:29:56.962Z,999.26
2019-05-10T03:30:56.997Z,999.18
2019-05-10T03:31:56.950Z,999.22
2019-05-10T03:32:56.979Z,999.18
2019-05-10T03:33:57.856Z,999.24
2019-05-10T03:34:56.911Z,999.26
2019-05-10T03:35:57.013Z,999.18
2019-05-10T03:36:56.889Z,999.24
2019-05-10T03:37:56.895Z,999.25
2019-05-10T03:38:56.869Z,999.21
2019-05-10T03:39:56.871Z,999.28
2019-05-10T03:40:56.942Z,999.25
2019-05-10T03:41:56.856Z,999.26
2019-05-10T03:42:56.841Z,999.26
2019-05-10T03:43:56.807Z,999.29
2019-05-10T03:44:56.809Z,999.28
2019-05-10T03:45:56.820Z,999.32
2019-05-10T03:46:56.786Z,999.29
2019-05-10T03:47:56.769Z,999.26
2019-05-10T03:48:56.763Z,999.33
2019-05-10T03:49:56.746Z,999.38
2019-05-10T03:50:56.747Z,999.31
2019-05-10T03:51:56.725Z,999.35
2019-05-10T03:52:56.706Z,999.35
2019-05-10T03:53:56.693Z,999.35
2019-05-10T03:54:56.702Z,999.38
2019-05-10T03:55:56.708Z,999.40
2019-05-10T03:57:11.976Z,999.38
2019-05-10T03:57:57.655Z,999.40
2019-05-10T03:58:56.645Z,999.42
2019-05-10T03:59:56.629Z,999.40
2019-05-10T04:00:56.629Z,999.43
2019-05-10T04:01:56.654Z,999.49
2019-05-10T04:02:56.613Z,999.52
2019-05-10T04:03:56.593Z,999.60
2019-05-10T04:04:56.572Z,999.54
2019-05-10T04:05:56.560Z,999.53
2019-05-10T04:06:56.621Z,999.55
2019-05-10T04:07:56.555Z,999.60
2019-05-10T04:08:56.540Z,999.57
2019-05-10T04:09:56.518Z,999.66
2019-05-10T04:10:56.529Z,999.61
2019-05-10T04:11:56.527Z,999.62
2019-05-10T04:12:56.507Z,999.65
2019-05-10T04:13:56.541Z,999.65
2019-05-10T04:14:56.465Z,999.74
2019-05-10T04:15:56.475Z,999.76
2019-05-10T04:16:56.556Z,999.71
2019-05-10T04:17:56.438Z,999.73
2019-05-10T04:18:56.432Z,999.74
2019-05-10T04:19:56.401Z,999.77
2019-05-10T04:20:56.403Z,999.73
2019-05-10T04:21:56.403Z,999.71
2019-05-10T04:22:56.387Z,999.72
2019-05-10T04:23:56.380Z,999.72
2019-05-10T04:24:56.384Z,999.76
2019-05-10T04:25:56.343Z,999.75
2019-05-10T04:26:56.375Z,999.76
2019-05-10T04:27:56.321Z,999.79
2019-05-10T04:28:56.421Z,999.82
2019-05-10T04:29:56.305Z,999.77
2019-05-10T04:30:56.339Z,999.83
2019-05-10T04:31:56.307Z,999.89
2019-05-10T04:32:56.281Z,999.86
2019-05-10T04:33:56.253Z,999.88
2019-05-10T04:34:56.255Z,999.88
2019-05-10T04:35:56.241Z,999.91
2019-05-10T04:36:56.314Z,999.91
2019-05-10T04:37:56.214Z,999.94
2019-05-10T04:38:56.199Z,999.92
2019-05-10T04:39:56.204Z,999.97
2019-05-10T04:40:56.182Z,999.98
2019-05-10T04:41:56.198Z,1000.05
2019-05-10T04:42:56.181Z,1000.05
2019-05-10T04:43:56.143Z,1000.06
2019-05-10T04:44:56.138Z,999.98
2019-05-10T04:45:56.135Z,999.96
2019-05-10T04:46:56.143Z,1000.03
2019-05-10T04:47:56.110Z,1000.06
2019-05-10T04:48:56.108Z,1000.01
2019-05-10T04:49:56.145Z,1000.04
2019-05-10T04:50:56.074Z,1000.07
2019-05-10T04:51:56.082Z,1000.06
2019-05-10T04:52:56.050Z,1000.07
2019-05-10T04:53:56.032Z,1000.08
2019-05-10T04:54:56.021Z,1000.09
2019-05-10T04:55:56.024Z,1000.05
2019-05-10T04:56:59.960Z,1000.12
2019-05-10T04:57:56.043Z,1000.13
2019-05-10T04:58:55.977Z,1000.10
2019-05-10T04:59:55.982Z,1000.11
2019-05-10T05:00:55.955Z,1000.16
2019-05-10T05:01:55.994Z,1000.14
2019-05-10T05:02:55.942Z,1000.19
2019-05-10T05:03:55.929Z,1000.21
2019-05-10T05:04:55.921Z,1000.19
2019-05-10T05:05:55.931Z,1000.14
2019-05-10T05:06:55.895Z,1000.27
2019-05-10T05:07:55.905Z,1000.15
2019-05-10T05:08:55.899Z,1000.22
2019-05-10T05:09:55.859Z,1000.19
2019-05-10T05:10:55.846Z,1000.24
2019-05-10T05:11:55.842Z,1000.19
2019-05-10T05:12:55.925Z,1000.27
2019-05-10T05:13:55.827Z,1000.21
2019-05-10T05:14:55.801Z,1000.26
2019-05-10T05:15:55.801Z,1000.25
2019-05-10T05:16:55.797Z,1000.29
2019-05-10T05:17:55.807Z,1000.34
2019-05-10T05:18:55.820Z,1000.24
2019-05-10T05:19:55.748Z,1000.18
2019-05-10T05:20:55.737Z,1000.30
2019-05-10T05:21:55.731Z,1000.31
2019-05-10T05:22:55.720Z,1000.29
2019-05-10T05:23:55.735Z,1000.29
2019-05-10T05:25:01.060Z,1000.32
2019-05-10T05:25:56.690Z,1000.32
2019-05-10T05:26:55.680Z,1000.36
2019-05-10T05:28:07.474Z,1000.33
2019-05-10T05:28:56.697Z,1000.33
2019-05-10T05:29:55.636Z,1000.38
2019-05-10T05:30:55.693Z,1000.33
2019-05-10T05:32:01.209Z,1000.31
2019-05-10T05:32:57.145Z,1000.42
2019-05-10T05:33:59.174Z,1000.40
2019-05-10T05:34:56.647Z,1000.44
2019-05-10T05:35:55.573Z,1000.43
2019-05-10T05:36:55.598Z,1000.51
2019-05-10T05:37:55.542Z,1000.50
2019-05-10T05:38:55.604Z,1000.53
2019-05-10T05:39:55.530Z,1000.52
2019-05-10T05:40:55.515Z,1000.56
2019-05-10T05:41:56.673Z,1000.52
2019-05-10T05:42:55.506Z,1000.51
2019-05-10T05:43:55.589Z,1000.48
2019-05-10T05:44:55.482Z,1000.62
2019-05-10T05:45:55.459Z,1000.60
2019-05-10T05:46:55.451Z,1000.57
2019-05-10T05:47:55.467Z,1000.63
2019-05-10T05:48:55.462Z,1000.66
2019-05-10T05:49:55.482Z,1000.66
2019-05-10T05:50:55.418Z,1000.76
2019-05-10T05:51:55.401Z,1000.74
2019-05-10T05:52:55.402Z,1000.73
2019-05-10T05:53:55.402Z,1000.63
2019-05-10T05:54:57.468Z,1000.66
2019-05-10T05:55:55.366Z,1000.70
2019-05-10T05:56:55.372Z,1000.65
2019-05-10T05:57:59.275Z,1000.69
2019-05-10T05:58:56.359Z,1000.71
2019-05-10T05:59:57.580Z,1000.67
2019-05-10T06:00:56.302Z,1000.73
2019-05-10T06:02:00.869Z,1000.69
2019-05-10T06:02:56.285Z,1000.77
2019-05-10T06:04:00.201Z,1000.72
2019-05-10T06:04:56.285Z,1000.74
2019-05-10T06:05:55.244Z,1000.76
2019-05-10T06:06:59.227Z,1000.70
2019-05-10T06:07:56.219Z,1000.70
2019-05-10T06:08:59.781Z,1000.83
2019-05-10T06:09:56.212Z,1000.78
2019-05-10T06:10:57.872Z,1000.79
2019-05-10T06:11:55.179Z,1000.84
2019-05-10T06:12:55.208Z,1000.92
2019-05-10T06:13:55.165Z,1000.90
2019-05-10T06:14:55.158Z,1000.91
2019-05-10T06:15:55.166Z,1000.88
2019-05-10T06:16:55.128Z,1000.94
2019-05-10T06:17:56.982Z,1000.89
2019-05-10T06:18:55.104Z,1000.86
2019-05-10T06:19:55.118Z,1000.90
2019-05-10T06:20:55.098Z,1000.94
2019-05-10T06:21:58.095Z,1000.95
2019-05-10T06:23:06.229Z,1001.01
2019-05-10T06:23:59.235Z,1000.95
2019-05-10T06:24:55.040Z,1000.99
2019-05-10T06:25:55.057Z,1000.97
2019-05-10T06:26:58.296Z,1001.01
2019-05-10T06:27:55.998Z,1000.99
2019-05-10T06:28:59.458Z,1001.01
2019-05-10T06:29:55.980Z,1001.05
2019-05-10T06:30:54.973Z,1001.06
2019-05-10T06:31:58.691Z,1001.09
2019-05-10T06:33:00.869Z,1001.12
2019-05-10T06:33:55.977Z,1001.12
2019-05-10T06:34:54.930Z,1001.16
2019-05-10T06:35:55.022Z,1001.14
2019-05-10T06:36:54.907Z,1001.16
2019-05-10T06:37:54.914Z,1001.14
2019-05-10T06:38:54.898Z,1001.16
2019-05-10T06:39:54.902Z,1001.16
2019-05-10T06:40:54.862Z,1001.17
2019-05-10T06:41:56.035Z,1001.18
2019-05-10T06:42:54.851Z,1001.13
2019-05-10T06:43:54.834Z,1001.17
2019-05-10T06:44:54.847Z,1001.16
2019-05-10T06:45:55.868Z,1001.12
2019-05-10T06:46:54.795Z,1001.15
2019-05-10T06:47:54.816Z,1001.12
2019-05-10T06:48:54.852Z,1001.18
2019-05-10T06:49:54.771Z,1001.21
2019-05-10T06:50:54.756Z,1001.24
2019-05-10T06:51:54.876Z,1001.22
2019-05-10T06:53:00.480Z,1001.25
2019-05-10T06:53:55.804Z,1001.16
2019-05-10T06:54:54.726Z,1001.22
2019-05-10T06:55:54.696Z,1001.22
2019-05-10T06:56:54.734Z,1001.26
2019-05-10T06:57:59.506Z,1001.19
2019-05-10T06:58:55.691Z,1001.21
2019-05-10T06:59:57.011Z,1001.20
2019-05-10T07:00:55.708Z,1001.24
2019-05-10T07:01:54.640Z,1001.22
2019-05-10T07:02:54.612Z,1001.21
2019-05-10T07:03:54.657Z,1001.17
2019-05-10T07:04:54.685Z,1001.18
2019-05-10T07:05:54.573Z,1001.14
2019-05-10T07:06:54.593Z,1001.18
2019-05-10T07:08:00.589Z,1001.25
2019-05-10T07:08:57.925Z,1001.28
2019-05-10T07:10:12.178Z,1001.26
2019-05-10T07:10:55.531Z,1001.24
2019-05-10T07:11:54.527Z,1001.24
2019-05-10T07:13:02.598Z,1001.25
2019-05-10T07:13:55.547Z,1001.23
2019-05-10T07:14:57.831Z,1001.25
2019-05-10T07:15:55.485Z,1001.29
2019-05-10T07:16:56.485Z,1001.32
2019-05-10T07:17:55.481Z,1001.34
2019-05-10T07:18:54.952Z,1001.29
2019-05-10T07:19:55.496Z,1001.29
2019-05-10T07:20:54.472Z,1001.34
2019-05-10T07:21:54.427Z,1001.25
2019-05-10T07:22:54.437Z,1001.25
2019-05-10T07:23:54.388Z,1001.33
2019-05-10T07:24:57.019Z,1001.26
2019-05-10T07:25:55.380Z,1001.28
2019-05-10T07:26:56.634Z,1001.27
2019-05-10T07:27:55.344Z,1001.34
2019-05-10T07:28:57.440Z,1001.36
2019-05-10T07:29:54.377Z,1001.38
2019-05-10T07:30:54.308Z,1001.38
2019-05-10T07:31:54.301Z,1001.44
2019-05-10T07:32:54.670Z,1001.42
2019-05-10T07:33:54.286Z,1001.43
2019-05-10T07:34:58.847Z,1001.47
2019-05-10T07:35:55.260Z,1001.57
2019-05-10T07:36:54.273Z,1001.49
2019-05-10T07:37:54.245Z,1001.51
2019-05-10T07:38:54.217Z,1001.54
2019-05-10T07:39:54.260Z,1001.58
2019-05-10T07:40:54.218Z,1001.54
2019-05-10T07:41:54.204Z,1001.60
2019-05-10T07:42:54.191Z,1001.58
2019-05-10T07:44:00.842Z,1001.65
2019-05-10T07:44:55.184Z,1001.61
2019-05-10T07:45:58.512Z,1001.58
2019-05-10T07:46:58.481Z,1001.63
2019-05-10T07:47:54.133Z,1001.65
2019-05-10T07:48:54.127Z,1001.63
2019-05-10T07:49:54.137Z,1001.67
2019-05-10T07:50:54.113Z,1001.69
2019-05-10T07:51:54.110Z,1001.66
2019-05-10T07:52:54.076Z,1001.73
2019-05-10T07:53:57.034Z,1001.72
2019-05-10T07:54:55.083Z,1001.74
2019-05-10T07:55:54.046Z,1001.69
2019-05-10T07:56:54.161Z,1001.70
2019-05-10T07:57:59.105Z,1001.77
2019-05-10T07:58:55.021Z,1001.73
2019-05-10T07:59:57.669Z,1001.71
2019-05-10T08:00:56.200Z,1001.77
2019-05-10T08:01:53.976Z,1001.80
2019-05-10T08:03:02.368Z,1001.80
2019-05-10T08:03:54.953Z,1001.90
2019-05-10T08:04:53.962Z,1001.82
2019-05-10T08:05:56.974Z,1001.90
2019-05-10T08:06:54.929Z,1001.84
2019-05-10T08:07:53.948Z,1001.87
2019-05-10T08:08:55.589Z,1001.93
2019-05-10T08:09:54.890Z,1002.01
2019-05-10T08:10:53.916Z,1001.99
2019-05-10T08:11:59.544Z,1001.99
2019-05-10T08:12:54.921Z,1002.04
2019-05-10T08:13:57.788Z,1001.97
2019-05-10T08:14:54.847Z,1002.00
2019-05-10T08:15:53.853Z,1002.05
2019-05-10T08:16:58.372Z,1002.01
2019-05-10T08:17:54.800Z,1002.06
2019-05-10T08:18:55.757Z,1002.02
2019-05-10T08:19:54.795Z,1002.04
2019-05-10T08:21:01.560Z,1002.03
2019-05-10T08:22:00.802Z,1002.04
2019-05-10T08:22:54.741Z,1002.05
2019-05-10T08:23:54.063Z,1002.09
2019-05-10T08:24:56.350Z,1002.13
2019-05-10T08:25:53.760Z,1002.09
2019-05-10T08:26:55.635Z,1002.08
2019-05-10T08:27:55.446Z,1002.02
2019-05-10T08:28:53.691Z,1002.11
2019-05-10T08:30:17.819Z,1002.15
2019-05-10T08:30:58.707Z,1002.19
2019-05-10T08:31:56.066Z,1002.11
2019-05-10T08:32:53.635Z,1002.11
2019-05-10T08:33:58.521Z,1002.19
2019-05-10T08:34:55.838Z,1002.12
2019-05-10T08:36:00.451Z,1002.18
2019-05-10T08:36:54.643Z,1002.13
2019-05-10T08:37:53.614Z,1002.12
2019-05-10T08:39:03.396Z,1002.08
2019-05-10T08:39:55.916Z,1002.13
2019-05-10T08:40:53.562Z,1002.18
2019-05-10T08:42:04.179Z,1002.27
2019-05-10T08:43:03.636Z,1002.21
2019-05-10T08:43:54.562Z,1002.21
2019-05-10T08:45:03.174Z,1002.22
2019-05-10T08:45:57.722Z,1002.24
2019-05-10T08:46:53.546Z,1002.28
2019-05-10T08:48:01.018Z,1002.21
2019-05-10T08:48:54.568Z,1002.26
2019-05-10T08:50:11.016Z,1002.24
2019-05-10T08:50:57.667Z,1002.27
2019-05-10T08:51:54.460Z,1002.26
2019-05-10T08:52:56.724Z,1002.29
2019-05-10T08:53:58.011Z,1002.29
2019-05-10T08:54:55.308Z,1002.22
2019-05-10T08:55:53.394Z,1002.29
2019-05-10T08:57:01.194Z,1002.25
2019-05-10T08:57:54.362Z,1002.32
2019-05-10T08:58:53.830Z,1002.27
2019-05-10T09:00:01.851Z,1002.25
2019-05-10T09:01:11.119Z,1002.23
2019-05-10T09:01:54.343Z,1002.28
2019-05-10T09:02:53.343Z,1002.29
2019-05-10T09:03:59.398Z,1002.31
2019-05-10T09:04:54.292Z,1002.33
2019-05-10T09:05:53.298Z,1002.31
2019-05-10T09:06:59.511Z,1002.28
2019-05-10T09:07:54.263Z,1002.40
2019-05-10T09:09:01.853Z,1002.38
2019-05-10T09:09:54.268Z,1002.33
2019-05-10T09:10:53.256Z,1002.40
2019-05-10T09:11:57.915Z,1002.38
2019-05-10T09:12:58.105Z,1002.32
2019-05-10T09:13:55.675Z,1002.34
2019-05-10T09:14:57.588Z,1002.39
2019-05-10T09:15:56.764Z,1002.41
2019-05-10T09:17:00.821Z,1002.44
2019-05-10T09:17:58.246Z,1002.44
2019-05-10T09:18:54.139Z,1002.47
2019-05-10T09:19:53.146Z,1002.48
2019-05-10T09:20:54.273Z,1002.42
2019-05-10T09:21:55.051Z,1002.45
2019-05-10T09:22:53.103Z,1002.47
2019-05-10T09:24:01.826Z,1002.49
2019-05-10T09:24:54.077Z,1002.49
2019-05-10T09:25:53.072Z,1002.49
2019-05-10T09:26:56.959Z,1002.50
2019-05-10T09:27:53.315Z,1002.48
2019-05-10T09:28:57.604Z,1002.52
2019-05-10T09:29:53.151Z,1002.40
2019-05-10T09:31:00.304Z,1002.46
2019-05-10T09:31:54.007Z,1002.47
2019-05-10T09:32:52.997Z,1002.48
2019-05-10T09:33:54.312Z,1002.46
2019-05-10T09:34:54.396Z,1002.41
2019-05-10T09:35:55.087Z,1002.45
2019-05-10T09:36:53.112Z,1002.51
2019-05-10T09:37:58.289Z,1002.49
2019-05-10T09:38:53.954Z,1002.53
2019-05-10T09:40:04.112Z,1002.51
2019-05-10T09:40:56.263Z,1002.47
2019-05-10T09:41:53.022Z,1002.55
2019-05-10T09:42:52.889Z,1002.54
2019-05-10T09:43:53.771Z,1002.55
2019-05-10T09:44:52.870Z,1002.54
2019-05-10T09:45:53.205Z,1002.60
2019-05-10T09:46:52.846Z,1002.54
2019-05-10T09:47:53.086Z,1002.56
2019-05-10T09:48:54.537Z,1002.57
2019-05-10T09:49:58.682Z,1002.65
2019-05-10T09:50:56.307Z,1002.63
2019-05-10T09:51:54.882Z,1002.59
2019-05-10T09:52:52.794Z,1002.65
2019-05-10T09:53:52.763Z,1002.64
2019-05-10T09:54:52.811Z,1002.68
2019-05-10T09:56:01.756Z,1002.68
2019-05-10T09:56:53.727Z,1002.62
2019-05-10T09:57:52.714Z,1002.63
2019-05-10T09:58:52.712Z,1002.68
2019-05-10T09:59:52.700Z,1002.60
2019-05-10T10:00:52.748Z,1002.59
2019-05-10T10:01:52.704Z,1002.66
2019-05-10T10:02:56.449Z,1002.60
2019-05-10T10:03:53.691Z,1002.61
2019-05-10T10:04:52.655Z,1002.71
2019-05-10T10:05:55.135Z,1002.69
2019-05-10T10:06:53.616Z,1002.65
2019-05-10T10:07:52.628Z,1002.80
2019-05-10T10:08:53.551Z,1002.77
2019-05-10T10:09:52.630Z,1002.81
2019-05-10T10:10:52.582Z,1002.81
2019-05-10T10:11:57.625Z,1002.81
2019-05-10T10:12:58.363Z,1002.82
2019-05-10T10:13:59.007Z,1002.96
2019-05-10T10:14:53.549Z,1002.90
2019-05-10T10:15:52.711Z,1002.92
2019-05-10T10:16:58.198Z,1002.93
2019-05-10T10:17:53.525Z,1002.98
2019-05-10T10:18:52.528Z,1002.97
2019-05-10T10:19:52.495Z,1002.97
2019-05-10T10:20:52.468Z,1003.00
2019-05-10T10:21:52.513Z,1003.04
2019-05-10T10:22:54.407Z,1003.05
2019-05-10T10:23:52.434Z,1003.02
2019-05-10T10:24:55.187Z,1003.07
2019-05-10T10:25:53.438Z,1003.06
2019-05-10T10:26:53.880Z,1003.08
2019-05-10T10:27:52.388Z,1003.08
2019-05-10T10:28:55.132Z,1003.18
2019-05-10T10:29:52.374Z,1003.15
2019-05-10T10:30:59.129Z,1003.11
2019-05-10T10:31:58.313Z,1003.17
2019-05-10T10:32:53.351Z,1003.17
2019-05-10T10:33:58.311Z,1003.14
2019-05-10T10:34:54.814Z,1003.14
2019-05-10T10:35:56.478Z,1003.12
2019-05-10T10:36:53.332Z,1003.21
2019-05-10T10:37:52.302Z,1003.19
2019-05-10T10:38:52.317Z,1003.19
2019-05-10T10:39:54.484Z,1003.23
2019-05-10T10:40:53.315Z,1003.17
2019-05-10T10:41:52.327Z,1003.18
2019-05-10T10:42:52.227Z,1003.20
2019-05-10T10:43:52.266Z,1003.29
2019-05-10T10:44:52.228Z,1003.20
2019-05-10T10:45:52.199Z,1003.26
2019-05-10T10:46:52.212Z,1003.26
2019-05-10T10:47:52.181Z,1003.29
2019-05-10T10:48:52.177Z,1003.31
2019-05-10T10:49:52.182Z,1003.29
2019-05-10T10:50:55.702Z,1003.28
2019-05-10T10:51:53.175Z,1003.33
2019-05-10T10:52:52.135Z,1003.36
2019-05-10T10:53:54.597Z,1003.27
2019-05-10T10:54:53.110Z,1003.27
2019-05-10T10:55:54.340Z,1003.23
2019-05-10T10:56:52.099Z,1003.28
2019-05-10T10:57:52.081Z,1003.22
2019-05-10T10:58:52.074Z,1003.27
2019-05-10T10:59:52.064Z,1003.21
2019-05-10T11:00:52.048Z,1003.22
2019-05-10T11:02:16.956Z,1003.30
2019-05-10T11:02:53.719Z,1003.29
2019-05-10T11:03:52.019Z,1003.33
2019-05-10T11:04:52.012Z,1003.38
2019-05-10T11:05:51.993Z,1003.47
2019-05-10T11:07:08.859Z,1003.36
2019-05-10T11:07:52.971Z,1003.79
2019-05-10T11:08:52.030Z,1003.78
2019-05-10T11:09:53.732Z,1003.39
2019-05-10T11:10:52.957Z,1003.51
2019-05-10T11:11:52.019Z,1003.59
2019-05-10T11:12:56.311Z,1003.45
2019-05-10T11:14:04.121Z,1003.43
2019-05-10T11:14:52.892Z,1003.47
2019-05-10T11:15:51.898Z,1003.39
2019-05-10T11:16:55.940Z,1003.42
2019-05-10T11:17:52.892Z,1003.41
2019-05-10T11:18:52.140Z,1003.46
2019-05-10T11:19:51.827Z,1003.39
2019-05-10T11:20:54.132Z,1003.43
2019-05-10T11:21:51.829Z,1003.46
2019-05-10T11:22:53.498Z,1003.47
2019-05-10T11:23:51.802Z,1003.38
2019-05-10T11:25:03.089Z,1003.43
2019-05-10T11:25:56.479Z,1003.36
2019-05-10T11:26:51.858Z,1003.42
2019-05-10T11:27:53.918Z,1003.41
2019-05-10T11:28:52.776Z,1003.42
2019-05-10T11:29:55.033Z,1003.40
2019-05-10T11:30:51.724Z,1003.44
2019-05-10T11:32:11.103Z,1003.50
2019-05-10T11:32:52.716Z,1003.47
2019-05-10T11:33:53.621Z,1003.48
2019-05-10T11:34:52.696Z,1003.55
2019-05-10T11:35:51.682Z,1003.51
2019-05-10T11:36:51.668Z,1003.48
2019-05-10T11:37:51.666Z,1003.39
2019-05-10T11:38:53.559Z,1003.49
2019-05-10T11:39:52.621Z,1003.47
2019-05-10T11:40:51.642Z,1003.50
2019-05-10T11:42:00.560Z,1003.47
2019-05-10T11:42:52.633Z,1003.46
2019-05-10T11:43:51.602Z,1003.47
2019-05-10T11:44:54.488Z,1003.42
2019-05-10T11:45:51.652Z,1003.54
2019-05-10T11:46:51.555Z,1003.48
2019-05-10T11:47:57.194Z,1003.46
2019-05-10T11:48:52.530Z,1003.52
2019-05-10T11:49:51.515Z,1003.48
2019-05-10T11:50:51.577Z,1003.55
2019-05-10T11:51:54.802Z,1003.53
2019-05-10T11:52:52.530Z,1003.53
2019-05-10T11:54:52.489Z,1003.54
2019-05-10T11:55:51.776Z,1003.53
2019-05-10T11:56:52.159Z,1003.53
2019-05-10T11:58:01.859Z,1003.51
2019-05-10T11:59:04.897Z,1003.55
2019-05-10T11:59:52.411Z,1003.56
2019-05-10T12:00:56.494Z,1003.61
2019-05-10T12:01:57.937Z,1003.60
2019-05-10T12:03:52.378Z,1003.63
2019-05-10T12:04:52.661Z,1003.62
2019-05-10T12:06:04.306Z,1003.62
2019-05-10T12:06:52.359Z,1003.75
2019-05-10T12:07:54.562Z,1003.84
2019-05-10T12:08:56.999Z,1003.80
2019-05-10T12:10:03.143Z,1004.14
2019-05-10T12:10:59.378Z,1004.22
2019-05-10T12:11:56.453Z,1004.05
2019-05-10T12:13:06.198Z,1004.23
2019-05-10T12:13:57.277Z,1004.19
2019-05-10T12:15:52.305Z,1004.06
2019-05-10T12:16:54.635Z,1004.10
2019-05-10T12:17:58.536Z,1004.14